createdAt,value
2023-05-10T00:00:50.298Z,14.82
2023-05-10T00:01:50.320Z,14.73
2023-05-10T00:02:50.300Z,14.73
2023-05-10T00:03:50.372Z,14.68
2023-05-10T00:04:50.198Z,14.66
2023-05-10T00:05:51.561Z,14.65
2023-05-10T00:06:50.282Z,14.65
2023-05-10T00:07:50.176Z,14.66
2023-05-10T00:08:50.201Z,14.66
2023-05-10T00:09:50.148Z,14.68
2023-05-10T00:10:50.140Z,14.66
2023-05-10T00:11:50.138Z,14.66
2023-05-10T00:12:50.147Z,14.65
2023-05-10T00:13:50.129Z,14.63
2023-05-10T00:14:50.136Z,14.65
2023-05-10T00:15:50.101Z,14.63
2023-05-10T00:16:50.125Z,14.62
2023-05-10T00:17:50.093Z,14.60
2023-05-10T00:18:50.084Z,14.59
2023-05-10T00:19:50.070Z,14.59
2023-05-10T00:20:50.034Z,14.53
2023-05-10T00:21:50.038Z,14.51
2023-05-10T00:22:50.001Z,14.47
2023-05-10T00:23:50.015Z,14.44
2023-05-10T00:24:49.998Z,14.41
2023-05-10T00:25:50.001Z,14.41
2023-05-10T00:26:49.955Z,14.37
2023-05-10T00:27:49.962Z,14.37
2023-05-10T00:28:49.954Z,14.37
2023-05-10T00:29:49.951Z,14.41
2023-05-10T00:30:49.960Z,14.40
2023-05-10T00:31:49.945Z,14.37
2023-05-10T00:32:49.986Z,14.37
2023-05-10T00:33:49.896Z,14.33
2023-05-10T00:34:49.909Z,14.33
2023-05-10T00:35:49.879Z,14.32
2023-05-10T00:36:49.861Z,14.32
2023-05-10T00:37:49.876Z,14.30
2023-05-10T00:38:49.832Z,14.30
2023-05-10T00:39:49.845Z,14.26
2023-05-10T00:40:49.842Z,14.25
2023-05-10T00:41:49.823Z,14.23
2023-05-10T00:42:49.817Z,14.20
2023-05-10T00:43:49.808Z,14.14
2023-05-10T00:44:49.774Z,14.14
2023-05-10T00:45:49.864Z,14.12
2023-05-10T00:46:49.748Z,14.11
2023-05-10T00:47:49.788Z,14.07
2023-05-10T00:48:49.719Z,14.08
2023-05-10T00:49:49.730Z,14.10
2023-05-10T00:50:49.716Z,14.08
2023-05-10T00:51:49.738Z,14.07
2023-05-10T00:52:49.689Z,14.07
2023-05-10T00:53:49.676Z,14.04
2023-05-10T00:54:49.666Z,14.07
2023-05-10T00:55:49.741Z,14.07
2023-05-10T00:56:49.668Z,14.07
2023-05-10T00:57:49.640Z,14.07
2023-05-10T00:58:49.644Z,14.04
2023-05-10T00:59:49.625Z,14.00
2023-05-10T01:00:49.647Z,14.04
2023-05-10T01:01:49.598Z,14.05
2023-05-10T01:02:49.657Z,14.04
2023-05-10T01:03:49.578Z,14.03
2023-05-10T01:04:49.619Z,14.00
2023-05-10T01:05:49.558Z,13.99
2023-05-10T01:06:49.562Z,13.97
2023-05-10T01:07:49.552Z,13.96
2023-05-10T01:08:49.512Z,13.95
2023-05-10T01:09:49.512Z,13.96
2023-05-10T01:10:49.499Z,13.95
2023-05-10T01:11:49.513Z,13.92
2023-05-10T01:12:49.499Z,13.87
2023-05-10T01:13:49.482Z,13.86
2023-05-10T01:14:49.473Z,13.85
2023-05-10T01:15:49.459Z,13.83
2023-05-10T01:16:49.445Z,13.83
2023-05-10T01:17:49.455Z,13.85
2023-05-10T01:18:49.423Z,13.85
2023-05-10T01:19:49.384Z,13.81
2023-05-10T01:20:49.444Z,13.83
2023-05-10T01:21:49.372Z,13.81
2023-05-10T01:22:49.375Z,13.79
2023-05-10T01:23:49.337Z,13.78
2023-05-10T01:24:49.370Z,13.79
2023-05-10T01:25:49.320Z,13.81
2023-05-10T01:26:49.363Z,13.79
2023-05-10T01:27:49.307Z,13.78
2023-05-10T01:28:49.322Z,13.77
2023-05-10T01:29:58.160Z,13.77
2023-05-10T06:00:58.552Z,13.74
2023-05-10T06:01:59.472Z,13.78
2023-05-10T06:02:59.450Z,13.78
2023-05-10T06:03:59.422Z,13.78
2023-05-10T06:04:59.387Z,13.81
2023-05-10T06:05:59.360Z,13.81
2023-05-10T06:06:59.338Z,13.83
2023-05-10T06:07:59.323Z,13.83
2023-05-10T06:08:59.296Z,13.86
2023-05-10T06:09:59.304Z,13.87
2023-05-10T06:10:59.298Z,13.89
2023-05-10T06:11:59.287Z,13.90
2023-05-10T06:12:59.332Z,13.90
2023-05-10T06:13:59.267Z,13.92
2023-05-10T06:14:59.233Z,13.93
2023-05-10T06:15:59.269Z,13.95
2023-05-10T06:16:59.228Z,14.00
2023-05-10T06:17:59.286Z,14.03
2023-05-10T06:18:59.186Z,14.04
2023-05-10T06:19:59.189Z,14.04
2023-05-10T06:20:59.203Z,14.05
2023-05-10T06:21:59.186Z,14.08
2023-05-10T06:22:59.161Z,14.10
2023-05-10T06:23:59.137Z,14.11
2023-05-10T06:24:59.127Z,14.11
2023-05-10T06:25:59.132Z,14.15
2023-05-10T06:26:59.096Z,14.15
2023-05-10T06:27:59.155Z,14.14
2023-05-10T06:28:59.073Z,14.15
2023-05-10T06:30:11.644Z,14.17
2023-05-10T06:30:59.068Z,14.14
2023-05-10T06:31:59.130Z,14.14
2023-05-10T06:32:59.099Z,14.14
2023-05-10T06:33:59.084Z,14.10
2023-05-10T06:34:59.069Z,14.12
2023-05-10T06:35:59.034Z,14.11
2023-05-10T06:36:59.013Z,14.11
2023-05-10T06:37:58.990Z,14.12
2023-05-10T06:38:59.100Z,14.14
2023-05-10T06:39:59.024Z,14.14
2023-05-10T06:40:58.950Z,14.15
2023-05-10T06:41:58.984Z,14.20
2023-05-10T06:42:58.928Z,14.23
2023-05-10T06:43:58.963Z,14.23
2023-05-10T06:44:58.894Z,14.25
2023-05-10T06:45:58.957Z,14.26
2023-05-10T06:46:58.900Z,14.29
2023-05-10T06:47:58.949Z,14.32
2023-05-10T06:48:58.907Z,14.35
2023-05-10T06:49:58.876Z,14.36
2023-05-10T06:50:58.851Z,14.41
2023-05-10T06:51:58.859Z,14.44
2023-05-10T06:52:58.819Z,14.44
2023-05-10T06:53:58.831Z,14.47
2023-05-10T06:54:58.811Z,14.48
2023-05-10T06:55:58.807Z,14.47
2023-05-10T06:56:58.818Z,14.50
2023-05-10T06:57:58.789Z,14.50
2023-05-10T06:58:58.784Z,14.48
2023-05-10T06:59:58.791Z,14.53
2023-05-10T07:00:58.812Z,14.54
2023-05-10T07:01:58.797Z,14.55
2023-05-10T07:02:59.536Z,14.55
2023-05-10T07:03:58.717Z,14.59
2023-05-10T07:05:01.854Z,14.60
2023-05-10T07:05:58.712Z,14.65
2023-05-10T07:06:58.707Z,14.68
2023-05-10T07:07:58.702Z,14.66
2023-05-10T07:08:58.704Z,14.65
2023-05-10T07:09:58.780Z,14.68
2023-05-10T07:10:58.630Z,14.70
2023-05-10T07:11:58.643Z,14.69
2023-05-10T07:12:58.732Z,14.70
2023-05-10T07:13:58.723Z,14.70
2023-05-10T07:14:58.640Z,14.72
2023-05-10T07:15:58.623Z,14.70
2023-05-10T07:16:58.574Z,14.70
2023-05-10T07:17:58.794Z,14.72
2023-05-10T07:18:58.574Z,14.78
2023-05-10T07:19:58.554Z,14.78
2023-05-10T07:20:58.578Z,14.78
2023-05-10T07:21:58.533Z,14.73
2023-05-10T07:22:58.497Z,14.77
2023-05-10T07:23:58.611Z,14.77
2023-05-10T07:24:58.473Z,14.77
2023-05-10T07:25:58.517Z,14.77
2023-05-10T07:26:58.496Z,14.78
2023-05-10T07:27:58.456Z,14.73
2023-05-10T07:28:58.445Z,14.73
2023-05-10T07:29:58.446Z,14.78
2023-05-10T07:30:58.432Z,14.78
2023-05-10T07:31:59.069Z,14.78
2023-05-10T07:32:58.435Z,14.79
2023-05-10T07:33:58.474Z,14.79
2023-05-10T07:34:58.381Z,14.81
2023-05-10T07:35:58.384Z,14.77
2023-05-10T07:36:58.359Z,14.77
2023-05-10T07:37:58.354Z,14.78
2023-05-10T07:38:58.335Z,14.73
2023-05-10T07:39:58.363Z,14.78
2023-05-10T07:40:58.298Z,14.73
2023-05-10T07:41:58.325Z,14.78
2023-05-10T07:42:58.313Z,14.77
2023-05-10T07:43:58.293Z,14.81
2023-05-10T07:44:58.264Z,14.81
2023-05-10T07:45:58.294Z,14.82
2023-05-10T07:46:58.249Z,14.84
2023-05-10T07:47:58.295Z,14.86
2023-05-10T07:48:58.220Z,14.85
2023-05-10T07:49:58.212Z,14.88
2023-05-10T07:50:58.220Z,14.86
2023-05-10T07:51:58.204Z,14.91
2023-05-10T07:52:58.170Z,14.92
2023-05-10T07:53:58.171Z,14.92
2023-05-10T07:54:58.154Z,14.92
2023-05-10T07:55:58.237Z,14.94
2023-05-10T07:56:58.179Z,14.97
2023-05-10T07:57:58.147Z,15.00
2023-05-10T07:58:58.110Z,15.02
2023-05-10T07:59:58.117Z,15.03
2023-05-10T08:00:58.101Z,15.07
2023-05-10T08:01:58.107Z,15.06
2023-05-10T08:02:58.220Z,15.09
2023-05-10T08:03:58.132Z,15.10
2023-05-10T08:04:58.047Z,15.17
2023-05-10T08:05:58.046Z,15.14
2023-05-10T08:06:58.033Z,15.15
2023-05-10T08:07:58.034Z,15.18
2023-05-10T08:08:58.027Z,15.18
2023-05-10T08:09:58.008Z,15.22
2023-05-10T08:10:57.997Z,15.25
2023-05-10T08:11:58.011Z,15.24
2023-05-10T08:12:57.953Z,15.25
2023-05-10T08:13:57.977Z,15.25
2023-05-10T08:14:57.965Z,15.27
2023-05-10T08:15:57.999Z,15.28
2023-05-10T08:16:57.958Z,15.29
2023-05-10T08:17:57.966Z,15.28
2023-05-10T08:18:57.957Z,15.33
2023-05-10T08:19:57.938Z,15.36
2023-05-10T08:20:57.878Z,15.36
2023-05-10T08:21:57.895Z,15.39
2023-05-10T08:22:57.897Z,15.40
2023-05-10T08:23:57.874Z,15.44
2023-05-10T08:24:57.860Z,15.47
2023-05-10T08:25:57.831Z,15.49
2023-05-10T08:26:57.915Z,15.49
2023-05-10T08:27:57.802Z,15.52
2023-05-10T08:28:57.863Z,15.55
2023-05-10T08:29:57.798Z,15.59
2023-05-10T08:30:57.833Z,15.61
2023-05-10T08:31:57.752Z,15.61
2023-05-10T08:32:57.954Z,15.59
2023-05-10T08:33:58.981Z,15.59
2023-05-10T08:34:57.801Z,15.61
2023-05-10T08:35:57.717Z,15.58
2023-05-10T08:36:57.730Z,15.61
2023-05-10T08:37:57.690Z,15.61
2023-05-10T08:38:57.706Z,15.58
2023-05-10T08:39:57.686Z,15.59
2023-05-10T08:40:57.902Z,15.61
2023-05-10T08:41:57.690Z,15.64
2023-05-10T08:42:57.667Z,15.65
2023-05-10T08:43:57.654Z,15.68
2023-05-10T08:44:57.664Z,15.72
2023-05-10T08:45:57.625Z,15.72
2023-05-10T08:46:57.661Z,15.76
2023-05-10T08:47:57.657Z,15.76
2023-05-10T08:48:57.604Z,15.79
2023-05-10T08:49:57.613Z,15.82
2023-05-10T08:50:57.621Z,15.83
2023-05-10T08:51:57.553Z,15.86
2023-05-10T08:52:57.579Z,15.88
2023-05-10T08:53:57.535Z,15.88
2023-05-10T08:54:57.521Z,15.90
2023-05-10T08:55:57.513Z,15.91
2023-05-10T08:56:57.533Z,15.92
2023-05-10T08:57:57.479Z,15.91
2023-05-10T08:58:57.482Z,15.90
2023-05-10T08:59:57.476Z,15.91
2023-05-10T09:00:57.513Z,15.92
2023-05-10T09:01:57.441Z,15.92
2023-05-10T09:02:57.482Z,15.94
2023-05-10T09:03:57.460Z,15.90
2023-05-10T09:04:57.511Z,15.92
2023-05-10T09:05:57.421Z,15.91
2023-05-10T09:06:57.423Z,15.90
2023-05-10T09:07:57.405Z,15.90
2023-05-10T09:08:57.388Z,15.90
2023-05-10T09:09:57.352Z,15.91
2023-05-10T09:10:57.363Z,15.94
2023-05-10T09:11:57.373Z,15.95
2023-05-10T09:12:59.204Z,15.97
2023-05-10T09:13:57.382Z,15.95
2023-05-10T09:14:57.321Z,15.98
2023-05-10T09:16:02.073Z,16.02
2023-05-10T09:16:57.333Z,16.02
2023-05-10T09:17:57.309Z,16.08
2023-05-10T09:18:57.328Z,16.10
2023-05-10T09:19:57.259Z,16.12
2023-05-10T09:20:57.291Z,16.12
2023-05-10T09:21:57.277Z,16.16
2023-05-10T09:22:57.291Z,16.20
2023-05-10T09:23:57.217Z,16.23
2023-05-10T09:24:57.258Z,16.24
2023-05-10T09:25:57.182Z,16.23
2023-05-10T09:26:57.268Z,16.24
2023-05-10T09:27:57.196Z,16.24
2023-05-10T09:28:57.237Z,16.26
2023-05-10T09:29:57.166Z,16.20
2023-05-10T09:30:57.298Z,16.21
2023-05-10T09:31:57.128Z,16.23
2023-05-10T09:32:57.156Z,16.20
2023-05-10T09:33:57.123Z,16.15
2023-05-10T09:34:57.104Z,16.13
2023-05-10T09:35:57.124Z,16.09
2023-05-10T09:36:57.100Z,16.09
2023-05-10T09:37:57.128Z,16.05
2023-05-10T09:38:57.105Z,16.04
2023-05-10T09:39:57.054Z,16.05
2023-05-10T09:40:57.044Z,16.10
2023-05-10T09:41:57.045Z,16.15
2023-05-10T09:42:57.115Z,16.16
2023-05-10T09:43:56.988Z,16.23
2023-05-10T09:44:57.060Z,16.24
2023-05-10T09:45:56.989Z,16.28
2023-05-10T09:46:56.972Z,16.31
2023-05-10T09:47:56.993Z,16.33
2023-05-10T09:48:56.996Z,16.33
2023-05-10T09:49:56.928Z,16.36
2023-05-10T09:50:56.954Z,16.36
2023-05-10T09:51:56.922Z,16.38
2023-05-10T09:52:56.902Z,16.39
2023-05-10T09:53:56.893Z,16.39
2023-05-10T09:54:56.901Z,16.41
2023-05-10T09:55:56.864Z,16.46
2023-05-10T09:56:56.880Z,16.43
2023-05-10T09:57:58.934Z,16.43
2023-05-10T09:58:56.952Z,16.46
2023-05-10T09:59:56.819Z,16.50
2023-05-10T10:00:56.831Z,16.51
2023-05-10T10:01:57.343Z,16.47
2023-05-10T10:02:56.847Z,16.46
2023-05-10T10:03:56.774Z,16.43
2023-05-10T10:04:56.813Z,16.47
2023-05-10T10:05:56.787Z,16.49
2023-05-10T10:06:56.763Z,16.49
2023-05-10T10:07:56.792Z,16.51
2023-05-10T10:08:56.884Z,16.47
2023-05-10T10:09:56.758Z,16.49
2023-05-10T10:10:56.722Z,16.47
2023-05-10T10:11:56.698Z,16.47
2023-05-10T10:12:56.725Z,16.42
2023-05-10T10:13:56.702Z,16.35
2023-05-10T10:14:56.682Z,16.31
2023-05-10T10:15:56.678Z,16.26
2023-05-10T10:17:07.332Z,16.23
2023-05-10T10:17:56.668Z,16.23
2023-05-10T10:18:56.758Z,16.20
2023-05-10T10:19:56.607Z,16.16
2023-05-10T10:20:56.635Z,16.09
2023-05-10T10:21:56.591Z,16.10
2023-05-10T10:22:56.594Z,16.09
2023-05-10T10:23:56.603Z,16.09
2023-05-10T10:24:56.576Z,16.10
2023-05-10T10:25:56.558Z,16.12
2023-05-10T10:26:56.542Z,16.15
2023-05-10T10:27:56.528Z,16.15
2023-05-10T10:28:56.534Z,16.16
2023-05-10T10:29:56.523Z,16.15
2023-05-10T10:30:56.526Z,16.16
2023-05-10T10:31:56.624Z,16.17
2023-05-10T10:32:56.524Z,16.23
2023-05-10T10:33:56.455Z,16.28
2023-05-10T10:34:56.483Z,16.28
2023-05-10T10:35:56.442Z,16.32
2023-05-10T10:36:56.618Z,16.35
2023-05-10T10:37:56.612Z,16.38
2023-05-10T10:38:56.420Z,16.36
2023-05-10T10:39:56.422Z,16.33
2023-05-10T10:40:56.397Z,16.36
2023-05-10T10:41:56.403Z,16.38
2023-05-10T10:42:56.398Z,16.35
2023-05-10T10:43:56.364Z,16.32
2023-05-10T10:44:56.349Z,16.24
2023-05-10T10:45:56.345Z,16.20
2023-05-10T10:46:56.378Z,16.20
2023-05-10T10:47:56.354Z,16.13
2023-05-10T10:48:56.322Z,16.10
2023-05-10T10:49:56.288Z,16.08
2023-05-10T10:50:56.300Z,16.08
2023-05-10T10:51:56.304Z,16.08
2023-05-10T10:52:56.302Z,16.02
2023-05-10T10:53:56.251Z,16.04
2023-05-10T10:54:56.253Z,16.04
2023-05-10T10:55:56.225Z,16.02
2023-05-10T10:56:56.224Z,16.08
2023-05-10T10:57:56.251Z,16.10
2023-05-10T10:58:56.204Z,16.10
2023-05-10T10:59:56.181Z,16.10
2023-05-10T11:00:56.230Z,16.12
2023-05-10T11:01:56.161Z,16.12
2023-05-10T11:02:56.287Z,16.12
2023-05-10T11:03:56.201Z,16.15
2023-05-10T11:04:56.152Z,16.16
2023-05-10T11:05:56.119Z,16.16
2023-05-10T11:06:56.130Z,16.15
2023-05-10T11:07:56.105Z,16.15
2023-05-10T11:08:56.124Z,16.20
2023-05-10T11:09:56.077Z,16.17
2023-05-10T11:10:56.103Z,16.16
2023-05-10T11:11:56.404Z,16.24
2023-05-10T11:12:56.055Z,16.26
2023-05-10T11:13:56.049Z,16.32
2023-05-10T11:14:56.033Z,16.33
2023-05-10T11:15:56.021Z,16.36
2023-05-10T11:16:56.060Z,16.43
2023-05-10T11:17:56.062Z,16.50
2023-05-10T11:18:56.131Z,16.56
2023-05-10T11:19:55.959Z,16.58
2023-05-10T11:20:56.017Z,16.61
2023-05-10T11:21:55.949Z,16.64
2023-05-10T11:22:55.963Z,16.65
2023-05-10T11:23:55.943Z,16.69
2023-05-10T11:24:56.010Z,16.71
2023-05-10T11:25:55.901Z,16.72
2023-05-10T11:26:55.909Z,16.66
2023-05-10T11:27:55.899Z,16.64
2023-05-10T11:28:55.894Z,16.65
2023-05-10T11:29:55.905Z,16.66
2023-05-10T11:30:56.031Z,16.71
2023-05-10T11:31:55.851Z,16.74
2023-05-10T11:32:55.890Z,16.76
2023-05-10T11:33:55.846Z,16.78
2023-05-10T11:34:55.907Z,16.79
2023-05-10T11:35:58.487Z,16.81
2023-05-10T11:36:55.837Z,16.81
2023-05-10T11:37:55.763Z,16.83
2023-05-10T11:38:55.799Z,16.86
2023-05-10T11:39:55.767Z,16.79
2023-05-10T11:40:55.763Z,16.79
2023-05-10T11:41:55.732Z,16.75
2023-05-10T11:42:55.792Z,16.75
2023-05-10T11:43:55.710Z,16.72
2023-05-10T11:44:55.714Z,16.66
2023-05-10T11:45:55.763Z,16.66
2023-05-10T11:46:55.705Z,16.61
2023-05-10T11:47:55.703Z,16.60
2023-05-10T11:48:55.699Z,16.61
2023-05-10T11:49:55.739Z,16.57
2023-05-10T11:50:55.802Z,16.51
2023-05-10T11:51:55.648Z,16.49
2023-05-10T11:52:55.626Z,16.49
2023-05-10T11:53:55.597Z,16.49
2023-05-10T11:54:55.637Z,16.49
2023-05-10T11:55:55.624Z,16.50
2023-05-10T11:56:55.580Z,16.51
2023-05-10T11:57:55.590Z,16.50
2023-05-10T11:58:55.574Z,16.47
2023-05-10T11:59:55.561Z,16.50
2023-05-10T12:00:55.555Z,16.50
2023-05-10T12:01:55.521Z,16.49
2023-05-10T12:02:55.582Z,16.49
2023-05-10T12:03:55.870Z,16.51
2023-05-10T12:04:55.515Z,16.53
2023-05-10T12:05:55.482Z,16.53
2023-05-10T12:06:55.507Z,16.51
2023-05-10T12:07:55.464Z,16.53
2023-05-10T12:08:55.464Z,16.53
2023-05-10T12:09:55.482Z,16.53
2023-05-10T12:10:55.474Z,16.56
2023-05-10T12:11:55.420Z,16.61
2023-05-10T12:12:55.413Z,16.65
2023-05-10T12:13:55.396Z,16.68
2023-05-10T12:14:55.395Z,16.69
2023-05-10T12:15:55.391Z,16.76
2023-05-10T12:16:55.449Z,16.81
2023-05-10T12:17:55.516Z,16.90
2023-05-10T12:18:55.365Z,16.90
2023-05-10T12:19:55.322Z,17.01
2023-05-10T12:20:55.351Z,17.02
2023-05-10T12:21:55.319Z,17.06
2023-05-10T12:22:55.299Z,17.14
2023-05-10T12:23:55.289Z,17.20
2023-05-10T12:24:55.297Z,17.27
2023-05-10T12:25:55.264Z,17.39
2023-05-10T12:26:55.276Z,17.49
2023-05-10T12:27:55.253Z,17.63
2023-05-10T12:28:55.257Z,17.74
2023-05-10T12:29:55.239Z,17.82
2023-05-10T12:30:55.230Z,17.86
2023-05-10T12:31:55.250Z,17.94
2023-05-10T12:32:55.201Z,18.03
2023-05-10T12:33:55.197Z,18.10
2023-05-10T12:34:55.175Z,18.20
2023-05-10T12:35:55.158Z,18.29
2023-05-10T12:36:55.236Z,18.38
2023-05-10T12:37:55.157Z,18.50
2023-05-10T12:38:55.163Z,18.56
2023-05-10T12:39:55.132Z,18.60
2023-05-10T12:40:55.133Z,18.66
2023-05-10T12:41:55.117Z,18.77
2023-05-10T12:42:55.126Z,18.81
2023-05-10T12:43:55.091Z,18.89
2023-05-10T12:44:55.245Z,18.96
2023-05-10T12:45:55.087Z,18.99
2023-05-10T12:46:55.068Z,19.04
2023-05-10T12:47:55.131Z,19.11
2023-05-10T12:49:06.870Z,19.11
2023-05-10T12:49:55.029Z,19.16
2023-05-10T12:50:55.041Z,19.21
2023-05-10T12:51:55.006Z,19.27
2023-05-10T12:52:54.961Z,19.31
2023-05-10T12:53:54.985Z,19.36
2023-05-10T12:54:54.952Z,19.44
2023-05-10T12:55:54.955Z,19.41
2023-05-10T12:56:54.968Z,19.45
2023-05-10T12:57:54.933Z,19.48
2023-05-10T12:58:54.968Z,19.54
2023-05-10T12:59:54.926Z,19.56
2023-05-10T13:00:54.931Z,19.62
2023-05-10T13:01:54.913Z,19.63
2023-05-10T13:02:54.980Z,19.63
2023-05-10T13:03:54.873Z,19.64
2023-05-10T13:04:54.880Z,19.69
2023-05-10T13:05:54.847Z,19.77
2023-05-10T13:06:54.823Z,19.79
2023-05-10T13:07:54.846Z,19.84
2023-05-10T13:08:54.791Z,19.85
2023-05-10T13:09:54.840Z,19.92
2023-05-10T13:10:54.786Z,20.00
2023-05-10T13:11:54.809Z,20.02
2023-05-10T13:12:54.749Z,20.02
2023-05-10T13:13:54.811Z,20.02
2023-05-10T13:14:54.753Z,20.07
2023-05-10T13:15:54.746Z,20.13
2023-05-10T13:16:54.738Z,20.16
2023-05-10T13:17:54.835Z,20.21
2023-05-10T13:18:54.708Z,20.26
2023-05-10T13:19:54.759Z,20.28
2023-05-10T13:20:54.721Z,20.29
2023-05-10T13:21:54.696Z,20.28
2023-05-10T13:22:54.662Z,20.28
2023-05-10T13:23:54.660Z,20.21
2023-05-10T13:24:54.622Z,20.14
2023-05-10T13:25:54.658Z,20.18
2023-05-10T13:26:54.603Z,20.18
2023-05-10T13:27:54.615Z,20.16
2023-05-10T13:28:54.584Z,20.14
2023-05-10T13:29:54.600Z,20.11
2023-05-10T13:30:54.635Z,20.07
2023-05-10T13:31:54.731Z,20.07
2023-05-10T13:32:54.585Z,19.99
2023-05-10T13:33:54.560Z,19.94
2023-05-10T13:34:54.522Z,19.91
2023-05-10T13:35:55.757Z,19.86
2023-05-10T13:36:54.497Z,19.81
2023-05-10T13:37:54.580Z,19.81
2023-05-10T13:38:54.482Z,19.79
2023-05-10T13:39:54.488Z,19.74
2023-05-10T13:40:54.484Z,19.76
2023-05-10T13:41:55.851Z,19.79
2023-05-10T13:42:54.444Z,19.74
2023-05-10T13:43:54.505Z,19.74
2023-05-10T13:44:54.422Z,19.81
2023-05-10T13:45:54.493Z,19.81
2023-05-10T13:46:54.547Z,19.79
2023-05-10T13:47:54.541Z,19.84
2023-05-10T13:48:54.383Z,19.88
2023-05-10T13:49:54.399Z,19.91
2023-05-10T13:50:54.360Z,19.92
2023-05-10T13:51:54.386Z,19.95
2023-05-10T13:52:54.325Z,19.99
2023-05-10T13:53:54.355Z,20.07
2023-05-10T13:54:54.309Z,20.04
2023-05-10T13:55:54.329Z,20.07
2023-05-10T13:56:54.286Z,20.09
2023-05-10T13:57:54.309Z,20.03
2023-05-10T13:58:54.272Z,20.06
2023-05-10T13:59:55.930Z,20.02
2023-05-10T14:00:54.276Z,20.02
2023-05-10T14:01:54.317Z,20.09
2023-05-10T14:02:54.297Z,20.13
2023-05-10T14:03:54.253Z,20.14
2023-05-10T14:04:54.197Z,20.18
2023-05-10T14:05:54.218Z,20.18
2023-05-10T14:06:54.203Z,20.18
2023-05-10T14:07:54.181Z,20.21
2023-05-10T14:08:54.165Z,20.21
2023-05-10T14:09:54.162Z,20.28
2023-05-10T14:10:54.144Z,20.26
2023-05-10T14:11:54.145Z,20.22
2023-05-10T14:12:54.136Z,20.16
2023-05-10T14:13:54.133Z,20.14
2023-05-10T14:14:54.150Z,20.14
2023-05-10T14:15:54.234Z,20.09
2023-05-10T14:16:54.094Z,20.06
2023-05-10T14:17:54.140Z,20.04
2023-05-10T14:18:54.210Z,20.00
2023-05-10T14:19:54.051Z,19.99
2023-05-10T14:20:54.033Z,19.96
2023-05-10T14:21:54.034Z,19.96
2023-05-10T14:22:54.034Z,19.95
2023-05-10T14:23:54.056Z,19.94
2023-05-10T14:24:54.006Z,19.89
2023-05-10T14:25:53.999Z,19.94
2023-05-10T14:26:53.988Z,19.95
2023-05-10T14:27:54.032Z,19.91
2023-05-10T14:28:54.035Z,19.96
2023-05-10T14:29:53.956Z,20.00
2023-05-10T14:30:53.942Z,20.06
2023-05-10T14:31:53.946Z,20.14
2023-05-10T14:32:53.933Z,20.11
2023-05-10T14:33:53.919Z,20.13
2023-05-10T14:34:53.909Z,20.11
2023-05-10T14:35:53.885Z,20.18
2023-05-10T14:36:53.860Z,20.28
2023-05-10T14:37:53.870Z,20.40
2023-05-10T14:38:53.848Z,20.50
2023-05-10T14:39:53.866Z,20.59
2023-05-10T14:40:53.846Z,20.62
2023-05-10T14:41:53.819Z,20.65
2023-05-10T14:42:53.818Z,20.63
2023-05-10T14:43:53.814Z,20.66
2023-05-10T14:44:53.794Z,20.70
2023-05-10T14:45:53.806Z,20.74
2023-05-10T14:46:53.783Z,20.78
2023-05-10T14:47:53.834Z,20.84
2023-05-10T14:48:53.732Z,20.90
2023-05-10T14:49:53.738Z,20.93
2023-05-10T14:50:53.738Z,20.99
2023-05-10T14:51:53.730Z,21.05
2023-05-10T14:52:53.690Z,21.05
2023-05-10T14:53:53.698Z,20.99
2023-05-10T14:54:53.669Z,20.99
2023-05-10T14:55:53.674Z,20.99
2023-05-10T14:56:53.655Z,20.93
2023-05-10T14:57:53.655Z,20.87
2023-05-10T14:58:53.655Z,20.85
2023-05-10T14:59:53.640Z,20.90
2023-05-10T15:00:53.646Z,20.96
2023-05-10T15:01:53.608Z,20.95
2023-05-10T15:02:53.751Z,20.97
2023-05-10T15:03:53.631Z,21.07
2023-05-10T15:04:53.584Z,21.11
2023-05-10T15:05:53.625Z,21.14
2023-05-10T15:06:53.570Z,21.15
2023-05-10T15:07:53.572Z,21.17
2023-05-10T15:08:53.519Z,21.18
2023-05-10T15:09:53.558Z,21.17
2023-05-10T15:10:53.518Z,21.11
2023-05-10T15:11:53.509Z,21.07
2023-05-10T15:12:53.477Z,21.06
2023-05-10T15:13:53.501Z,20.99
2023-05-10T15:14:53.447Z,20.95
2023-05-10T15:15:53.470Z,20.96
2023-05-10T15:16:53.441Z,20.99
2023-05-10T15:17:53.485Z,21.03
2023-05-10T15:18:53.484Z,21.07
2023-05-10T15:19:53.478Z,21.07
2023-05-10T15:20:53.413Z,21.11
2023-05-10T15:21:53.416Z,21.11
2023-05-10T15:22:53.371Z,21.11
2023-05-10T15:23:53.369Z,21.02
2023-05-10T15:24:53.339Z,20.95
2023-05-10T15:25:53.370Z,20.96
2023-05-10T15:26:53.325Z,20.93
2023-05-10T15:27:53.406Z,20.88
2023-05-10T15:28:53.317Z,20.82
2023-05-10T15:29:53.316Z,20.78
2023-05-10T15:30:53.364Z,20.72
2023-05-10T15:31:53.329Z,20.67
2023-05-10T15:32:53.312Z,20.59
2023-05-10T15:33:53.284Z,20.51
2023-05-10T15:34:53.253Z,20.43
2023-05-10T15:35:53.252Z,20.40
2023-05-10T15:36:53.254Z,20.34
2023-05-10T15:37:53.247Z,20.34
2023-05-10T15:38:53.225Z,20.29
2023-05-10T15:39:53.638Z,20.31
2023-05-10T15:40:53.186Z,20.26
2023-05-10T15:41:53.190Z,20.28
2023-05-10T15:42:53.146Z,20.26
2023-05-10T15:43:53.173Z,20.22
2023-05-10T15:44:53.127Z,20.19
2023-05-10T15:45:53.165Z,20.18
2023-05-10T15:46:53.215Z,20.16
2023-05-10T15:47:53.156Z,20.14
2023-05-10T15:48:53.096Z,20.11
2023-05-10T15:49:53.104Z,20.10
2023-05-10T15:50:53.102Z,20.07
2023-05-10T15:51:53.090Z,20.06
2023-05-10T15:52:53.073Z,20.03
2023-05-10T15:54:05.705Z,20.00
2023-05-10T15:54:53.034Z,19.96
2023-05-10T15:55:53.031Z,19.94
2023-05-10T15:56:53.009Z,19.88
2023-05-10T15:57:53.012Z,19.85
2023-05-10T15:58:53.000Z,19.81
2023-05-10T15:59:52.992Z,19.77
2023-05-10T16:00:52.997Z,19.73
2023-05-10T16:01:53.009Z,19.70
2023-05-10T16:02:53.080Z,19.67
2023-05-10T16:03:52.952Z,19.66
2023-05-10T16:04:52.926Z,19.63
2023-05-10T16:05:52.923Z,19.59
2023-05-10T16:06:52.897Z,19.59
2023-05-10T16:07:52.908Z,19.59
2023-05-10T16:08:54.120Z,19.56
2023-05-10T16:09:52.898Z,19.55
2023-05-10T16:10:52.885Z,19.54
2023-05-10T16:11:52.875Z,19.55
2023-05-10T16:12:52.866Z,19.51
2023-05-10T16:13:52.863Z,19.51
2023-05-10T16:14:52.817Z,19.45
2023-05-10T16:15:52.823Z,19.41
2023-05-10T16:16:52.966Z,19.37
2023-05-10T16:17:52.921Z,19.36
2023-05-10T16:18:52.930Z,19.30
2023-05-10T16:19:52.793Z,19.27
2023-05-10T16:20:52.765Z,19.24
2023-05-10T16:21:52.763Z,19.27
2023-05-10T16:22:52.750Z,19.26
2023-05-10T16:23:52.757Z,19.24
2023-05-10T16:24:52.706Z,19.22
2023-05-10T16:25:52.716Z,19.18
2023-05-10T16:26:52.683Z,19.16
2023-05-10T16:27:52.704Z,19.14
2023-05-10T16:28:52.725Z,19.08
2023-05-10T16:29:52.708Z,19.08
2023-05-10T16:30:52.934Z,19.08
2023-05-10T16:31:52.709Z,19.07
2023-05-10T16:32:52.731Z,19.02
2023-05-10T16:33:52.675Z,18.99
2023-05-10T16:34:52.608Z,19.02
2023-05-10T16:35:52.698Z,18.99
2023-05-10T16:36:52.614Z,19.02
2023-05-10T16:37:52.639Z,18.99
2023-05-10T16:38:52.579Z,18.99
2023-05-10T16:39:52.567Z,18.98
2023-05-10T16:40:52.588Z,18.99
2023-05-10T16:41:52.587Z,18.96
2023-05-10T16:42:52.517Z,18.93
2023-05-10T16:43:52.528Z,18.93
2023-05-10T16:44:52.521Z,18.92
2023-05-10T16:45:52.582Z,18.90
2023-05-10T16:46:52.473Z,18.90
2023-05-10T16:47:52.627Z,18.89
2023-05-10T16:48:52.454Z,18.88
2023-05-10T16:49:52.464Z,18.89
2023-05-10T16:50:52.433Z,18.88
2023-05-10T16:51:52.441Z,18.84
2023-05-10T16:52:52.410Z,18.81
2023-05-10T16:53:52.449Z,18.81
2023-05-10T16:54:52.434Z,18.81
2023-05-10T16:55:52.402Z,18.80
2023-05-10T16:56:52.387Z,18.77
2023-05-10T16:57:52.481Z,18.74
2023-05-10T16:58:52.365Z,18.71
2023-05-10T16:59:52.339Z,18.71
2023-05-10T17:00:52.379Z,18.70
2023-05-10T17:01:52.429Z,18.68
2023-05-10T17:02:52.390Z,18.63
2023-05-10T17:03:52.487Z,18.62
2023-05-10T17:04:52.336Z,18.62
2023-05-10T17:05:52.283Z,18.62
2023-05-10T17:06:52.273Z,18.60
2023-05-10T17:07:52.247Z,18.59
2023-05-10T17:08:52.254Z,18.58
2023-05-10T17:09:52.240Z,18.55
2023-05-10T17:10:52.255Z,18.55
2023-05-10T17:11:52.214Z,18.53
2023-05-10T17:12:52.207Z,18.49
2023-05-10T17:13:52.190Z,18.49
2023-05-10T17:14:52.182Z,18.47
2023-05-10T17:15:52.227Z,18.50
2023-05-10T17:16:52.202Z,18.44
2023-05-10T17:17:52.171Z,18.45
2023-05-10T17:18:52.168Z,18.45
2023-05-10T17:19:52.131Z,18.45
2023-05-10T17:20:52.143Z,18.44
2023-05-10T17:21:52.113Z,18.41
2023-05-10T17:22:52.119Z,18.40